Time;durP1;ratioP1;P1;durP2;ratioP2;P2;SDS_P1;SDS_P2;PMS_P1;PMS_P2;Temp;Humidity;BMP_temperature;BMP_pressure;BME280_temperature;BME280_humidity;BME280_pressure;Samples;Min_cycle;Max_cycle;Signal;HPM_P1;HPM_P2
2022/12/26 00:00:30;;;;;;;15.98;8.05;;;;;;;10.50;100.00;100561.56;5093216;28;20040;-62
2022/12/26 00:02:57;;;;;;;15.27;7.10;;;;;;;10.42;100.00;100559.66;5093415;28;20051;-63
2022/12/26 00:05:23;;;;;;;20.42;7.85;;;;;;;10.48;100.00;100564.38;5092868;28;20060;-63
2022/12/26 00:07:50;;;;;;;16.73;7.32;;;;;;;10.46;100.00;100560.19;5092783;28;20117;-63
2022/12/26 00:10:17;;;;;;;16.60;7.32;;;;;;;10.40;100.00;100564.31;5092879;28;20046;-63
2022/12/26 00:12:43;;;;;;;16.30;7.22;;;;;;;10.43;100.00;100565.81;5093538;28;20051;-63
2022/12/26 00:15:10;;;;;;;14.68;7.38;;;;;;;10.45;100.00;100558.53;5093021;28;20094;-63
2022/12/26 00:17:37;;;;;;;17.23;8.02;;;;;;;10.43;100.00;100564.00;5093343;28;20036;-63
2022/12/26 00:20:04;;;;;;;17.50;7.50;;;;;;;10.49;100.00;100558.06;5093141;28;20398;-63
2022/12/26 00:22:31;;;;;;;19.33;7.60;;;;;;;10.47;100.00;100551.25;5092989;28;20465;-63
2022/12/26 00:24:57;;;;;;;17.05;7.50;;;;;;;10.54;100.00;100562.91;5092839;28;20044;-63
2022/12/26 00:27:24;;;;;;;16.20;7.70;;;;;;;10.52;100.00;100570.19;5093046;28;20044;-63
2022/12/26 00:29:51;;;;;;;19.00;7.68;;;;;;;10.62;100.00;100562.09;5091681;28;20044;-63
2022/12/26 00:32:17;;;;;;;17.20;7.78;;;;;;;10.54;100.00;100565.53;5093146;28;20052;-63
2022/12/26 00:34:44;;;;;;;17.98;8.13;;;;;;;10.49;100.00;100562.53;5093201;28;20044;-63
2022/12/26 00:37:11;;;;;;;15.18;7.32;;;;;;;10.52;100.00;100563.06;5093285;28;20101;-63
2022/12/26 00:39:37;;;;;;;21.15;7.07;;;;;;;10.45;100.00;100559.38;5092511;28;20043;-63
2022/12/26 00:42:04;;;;;;;13.18;6.03;;;;;;;10.44;100.00;100555.06;5093119;28;20067;-63
2022/12/26 00:44:31;;;;;;;14.15;6.60;;;;;;;10.49;100.00;100554.56;5092862;28;20048;-63
2022/12/26 00:46:58;;;;;;;16.73;5.85;;;;;;;10.46;100.00;100554.88;5093040;28;20040;-63
2022/12/26 00:49:25;;;;;;;14.23;5.88;;;;;;;10.50;100.00;100554.44;5092932;28;20497;-63
2022/12/26 00:51:51;;;;;;;15.15;5.90;;;;;;;10.51;100.00;100557.91;5092681;28;20516;-63
2022/12/26 00:54:18;;;;;;;14.48;5.72;;;;;;;10.52;100.00;100570.19;5092949;28;20044;-63
2022/12/26 00:56:45;;;;;;;14.57;5.28;;;;;;;10.54;100.00;100579.63;5092738;28;20040;-63
2022/12/26 00:59:12;;;;;;;12.02;4.70;;;;;;;10.47;100.00;100594.50;5093003;28;20048;-63
2022/12/26 01:01:38;;;;;;;14.52;5.10;;;;;;;10.51;100.00;100576.47;5092278;28;20379;-63
2022/12/26 01:04:05;;;;;;;11.90;4.85;;;;;;;10.61;100.00;100571.06;5092930;28;20044;-63
2022/12/26 01:06:32;;;;;;;14.45;5.07;;;;;;;10.65;100.00;100577.72;5091968;28;20059;-63
2022/12/26 01:08:59;;;;;;;17.45;4.97;;;;;;;10.56;100.00;100612.13;5093970;28;20067;-63
2022/12/26 01:11:41;;;;;;;11.85;4.57;;;;;;;10.58;100.00;100614.63;5095227;28;20063;-63
2022/12/26 01:14:12;;;;;;;;;;;;;;;10.69;100.00;100621.50;5095669;28;20085;-63
2022/12/26 01:16:41;;;;;;;14.15;5.00;;;;;;;10.60;100.00;100611.81;5095214;28;20380;-63
2022/12/26 01:19:09;;;;;;;14.73;5.13;;;;;;;10.53;100.00;100616.91;5096343;28;20114;-63
2022/12/26 01:21:36;;;;;;;14.18;4.97;;;;;;;10.52;100.00;100624.06;5095804;28;20405;-63
2022/12/26 01:24:03;;;;;;;14.98;5.50;;;;;;;10.53;100.00;100620.44;5096217;28;20495;-63
2022/12/26 01:26:30;;;;;;;15.18;5.20;;;;;;;10.48;100.00;100609.44;5094816;28;20481;-63
2022/12/26 01:28:57;;;;;;;11.85;5.53;;;;;;;10.54;100.00;100614.13;5096216;28;20481;-63
2022/12/26 01:31:24;;;;;;;12.07;5.75;;;;;;;10.62;100.00;100623.94;5096036;28;20044;-63
2022/12/26 01:33:50;;;;;;;13.35;5.25;;;;;;;10.58;100.00;100630.56;5096160;28;20044;-63
2022/12/26 01:36:17;;;;;;;13.93;5.90;;;;;;;10.60;100.00;100643.66;5096024;28;20051;-63
2022/12/26 01:38:44;;;;;;;15.07;5.55;;;;;;;10.50;100.00;100636.63;5094989;28;20047;-63
2022/12/26 01:41:18;;;;;;;12.45;5.68;;;;;;;10.54;100.00;100637.16;5094508;28;20074;-63
2022/12/26 01:46:39;;;;;;;13.68;5.95;;;;;;;10.48;100.00;100619.22;5110805;27;20524;-62
2022/12/26 01:49:14;;;;;;;12.75;6.13;;;;;;;10.50;100.00;100634.00;5109931;28;20397;-63
2022/12/26 01:51:46;;;;;;;14.48;5.60;;;;;;;10.54;100.00;100634.50;5110102;28;20055;-62
2022/12/26 01:54:14;;;;;;;11.98;5.90;;;;;;;10.50;100.00;100639.28;5110945;28;20493;-62
2022/12/26 01:56:44;;;;;;;18.23;6.00;;;;;;;10.48;100.00;100635.16;5110770;28;20047;-63
2022/12/26 01:59:17;;;;;;;14.25;5.88;;;;;;;10.52;100.00;100634.66;5110673;28;20131;-62
2022/12/26 02:01:46;;;;;;;14.75;5.25;;;;;;;10.53;100.00;100623.06;5109990;28;20048;-63
2022/12/26 02:07:08;;;;;;;12.55;6.20;;;;;;;10.48;100.00;100624.53;5109962;28;20397;-63
2022/12/26 02:09:36;;;;;;;18.85;6.22;;;;;;;10.45;100.00;100627.50;5092319;28;20439;-63
2022/12/26 02:12:19;;;;;;;16.45;6.47;;;;;;;10.45;100.00;100636.28;5109628;28;20047;-63
2022/12/26 02:14:46;;;;;;;19.35;6.40;;;;;;;10.46;100.00;100647.69;5110340;28;20501;-63
2022/12/26 02:17:14;;;;;;;14.88;6.45;;;;;;;10.42;100.00;100651.66;5110608;28;20542;-63
2022/12/26 02:22:59;;;;;;;19.20;6.60;;;;;;;10.38;100.00;100646.66;5131395;27;20431;-62
2022/12/26 02:26:01;;;;;;;18.58;6.32;;;;;;;10.48;100.00;100645.75;5110688;28;20044;-62
2022/12/26 02:29:01;;;;;;;21.33;7.00;;;;;;;10.45;100.00;100638.91;5090332;28;20048;-62
2022/12/26 02:31:48;;;;;;;17.92;6.13;;;;;;;10.35;100.00;100646.13;5090335;28;20290;-62
2022/12/26 02:34:21;;;;;;;15.85;5.90;;;;;;;10.33;100.00;100651.63;5072444;28;20193;-62
2022/12/26 02:40:00;;;;;;;16.77;6.35;;;;;;;10.25;100.00;100661.28;5110929;27;20346;-62
2022/12/26 02:42:58;;;;;;;15.70;6.20;;;;;;;10.33;100.00;100677.28;5111069;28;20505;-62
2022/12/26 02:48:54;;;;;;;14.15;6.00;;;;;;;10.36;100.00;100661.91;5110901;28;20047;-62
2022/12/26 03:14:47;;;;;;;18.13;4.88;;;;;;;10.22;100.00;100672.19;5110429;28;20058;-63
2022/12/26 03:17:30;;;;;;;11.20;5.32;;;;;;;10.19;100.00;100665.41;5110357;28;20101;-62
2022/12/26 03:20:08;;;;;;;14.60;5.05;;;;;;;10.13;100.00;100656.25;5092598;28;20058;-63
2022/12/26 03:22:42;;;;;;;11.68;5.25;;;;;;;10.05;100.00;100656.16;5108970;28;20036;-63
2022/12/26 03:28:02;;;;;;;11.70;5.50;;;;;;;10.08;100.00;100673.59;5109992;28;20044;-63
2022/12/26 03:31:01;;;;;;;15.00;6.05;;;;;;;10.05;100.00;100668.59;5110018;28;20087;-63
2022/12/26 03:36:20;;;;;;;11.77;5.60;;;;;;;10.02;100.00;100687.44;5109918;28;20044;-62
2022/12/26 03:39:16;;;;;;;12.43;5.90;;;;;;;10.01;100.00;100678.66;5109658;28;20134;-62
2022/12/26 04:20:39;;;;;;;11.25;5.30;;;;;;;9.95;100.00;100703.94;5094887;28;20043;-64
2022/12/26 04:46:01;;;;;;;10.52;5.05;;;;;;;9.71;100.00;100715.09;5094872;28;20051;-63
2022/12/26 04:51:16;;;;;;;11.93;5.45;;;;;;;9.73;100.00;100712.31;5094739;28;20044;-65
2022/12/26 04:53:42;;;;;;;15.13;5.10;;;;;;;9.75;100.00;100716.50;5093832;28;20040;-64
2022/12/26 04:56:12;;;;;;;11.65;5.20;;;;;;;9.69;100.00;100703.00;5094494;28;20127;-63
2022/12/26 04:58:39;;;;;;;14.30;5.45;;;;;;;9.77;100.00;100703.94;5093688;28;20044;-63
2022/12/26 05:09:33;;;;;;;11.45;5.82;;;;;;;9.77;100.00;100703.94;5096124;28;20397;-59
2022/12/26 05:12:02;;;;;;;13.60;5.70;;;;;;;9.76;100.00;100706.72;5094177;28;20040;-59
2022/12/26 05:14:30;;;;;;;13.65;6.68;;;;;;;9.73;100.00;100712.31;5094549;28;20502;-60
2022/12/26 05:28:46;;;;;;;12.02;6.88;;;;;;;9.80;100.00;100716.88;5094112;28;20066;-59
2022/12/26 05:31:03;;;;;;;13.88;7.20;;;;;;;9.76;100.00;100720.78;5094213;28;20040;-60
2022/12/26 05:36:19;;;;;;;13.90;6.63;;;;;;;9.77;100.00;100732.25;5094135;28;20040;-60
2022/12/26 05:38:47;;;;;;;15.57;7.43;;;;;;;9.80;100.00;100729.28;5093822;28;20508;-60
2022/12/26 05:41:14;;;;;;;12.80;6.93;;;;;;;9.84;100.00;100729.81;5092802;28;20480;-60
2022/12/26 05:43:41;;;;;;;12.48;6.60;;;;;;;9.84;100.00;100732.47;5094252;28;20044;-59
2022/12/26 05:46:07;;;;;;;14.48;6.97;;;;;;;9.87;100.00;100730.34;5093927;28;20063;-60
2022/12/26 05:48:34;;;;;;;15.27;6.57;;;;;;;9.82;100.00;100722.00;5092876;28;20046;-60
2022/12/26 05:51:02;;;;;;;12.98;7.00;;;;;;;9.84;100.00;100727.16;5093892;28;20065;-59
2022/12/26 05:53:30;;;;;;;12.90;6.80;;;;;;;9.85;100.00;100720.91;5093980;28;20055;-60
2022/12/26 05:56:06;;;;;;;14.27;7.20;;;;;;;9.87;100.00;100713.63;5094105;28;20127;-60
2022/12/26 05:58:33;;;;;;;13.10;7.05;;;;;;;9.81;100.00;100717.72;5092564;28;20504;-60
2022/12/26 06:03:47;;;;;;;11.48;6.80;;;;;;;9.79;100.00;100723.16;5111109;27;20383;-60
2022/12/26 06:06:15;;;;;;;13.80;6.85;;;;;;;9.82;100.00;100722.00;5110542;28;20032;-59
2022/12/26 06:08:41;;;;;;;13.95;6.68;;;;;;;9.78;100.00;100710.06;5109420;28;20508;-59
2022/12/26 06:11:11;;;;;;;15.30;6.88;;;;;;;9.82;100.00;100708.75;5110663;28;20127;-59
2022/12/26 06:13:39;;;;;;;15.57;6.50;;;;;;;9.78;100.00;100699.44;5110010;28;20072;-60
2022/12/26 06:16:07;;;;;;;15.77;6.47;;;;;;;9.78;100.00;100707.41;5110983;28;20052;-59
2022/12/26 06:18:34;;;;;;;12.27;6.60;;;;;;;9.80;100.00;100726.63;5111211;28;20047;-60
2022/12/26 06:21:04;;;;;;;11.52;6.00;;;;;;;9.79;100.00;100736.41;5110709;28;20043;-60
2022/12/26 06:23:31;;;;;;;12.32;6.10;;;;;;;9.86;100.00;100741.94;5109947;28;20047;-59
2022/12/26 06:25:58;;;;;;;13.82;6.53;;;;;;;9.80;100.00;100739.88;5109069;28;20410;-58
2022/12/26 06:28:25;;;;;;;12.30;6.38;;;;;;;9.73;100.00;100731.72;5089345;28;20044;-58
2022/12/26 06:30:52;;;;;;;11.95;6.53;;;;;;;9.77;100.00;100740.19;5089041;28;20135;-58
2022/12/26 06:33:19;;;;;;;13.40;6.72;;;;;;;9.73;100.00;100734.34;5089080;28;20053;-59
2022/12/26 06:35:46;;;;;;;16.02;7.00;;;;;;;9.76;100.00;100728.75;5088867;28;20044;-58
2022/12/26 06:38:12;;;;;;;14.13;6.10;;;;;;;9.67;100.00;100718.22;5090043;28;20040;-58
2022/12/26 06:40:42;;;;;;;15.30;6.88;;;;;;;9.66;100.00;100722.69;5088838;28;20082;-59
2022/12/26 06:43:09;;;;;;;12.52;6.45;;;;;;;9.70;100.00;100734.66;5088651;28;20036;-58
2022/12/26 06:45:36;;;;;;;17.05;7.25;;;;;;;9.70;100.00;100733.81;5089910;28;20037;-59
2022/12/26 06:48:03;;;;;;;12.82;6.68;;;;;;;9.62;100.00;100729.25;5089888;28;20032;-58
2022/12/26 06:50:30;;;;;;;11.50;6.00;;;;;;;9.72;100.00;100727.38;5089813;28;20054;-58
2022/12/26 06:52:56;;;;;;;12.15;5.78;;;;;;;9.67;100.00;100728.81;5088858;28;20094;-58
2022/12/26 06:55:23;;;;;;;15.60;5.47;;;;;;;9.62;100.00;100726.59;5089845;28;20044;-61
2022/12/26 06:57:51;;;;;;;13.02;5.10;;;;;;;9.67;100.00;100721.69;5105411;28;20048;-59
2022/12/26 07:00:19;;;;;;;13.07;4.63;;;;;;;9.68;100.00;100725.16;5109837;28;20043;-59
2022/12/26 07:02:48;;;;;;;12.68;4.75;;;;;;;9.70;100.00;100744.41;5109660;28;20048;-59
2022/12/26 07:05:15;;;;;;;9.02;3.80;;;;;;;9.75;100.00;100742.13;5110308;28;20055;-59
2022/12/26 07:07:42;;;;;;;10.57;3.72;;;;;;;9.81;100.00;100760.09;5099267;28;20047;-59
2022/12/26 07:10:09;;;;;;;8.75;3.60;;;;;;;9.82;100.00;100755.63;5108406;28;20055;-59
2022/12/26 07:12:35;;;;;;;14.85;3.47;;;;;;;9.80;100.00;100774.31;5108901;28;20048;-60
2022/12/26 07:15:03;;;;;;;8.45;3.38;;;;;;;9.78;100.00;100769.16;5095708;28;20493;-60
2022/12/26 07:17:29;;;;;;;7.47;3.03;;;;;;;9.83;100.00;100770.56;5094773;28;20440;-59
2022/12/26 07:19:56;;;;;;;10.70;3.03;;;;;;;9.86;100.00;100765.78;5096495;28;20077;-60
2022/12/26 07:22:22;;;;;;;7.13;3.13;;;;;;;9.82;100.00;100774.16;5095857;28;20673;-60
2022/12/26 07:24:49;;;;;;;8.73;3.17;;;;;;;9.82;100.00;100787.41;5095908;28;20044;-60
2022/12/26 07:27:17;;;;;;;12.20;3.30;;;;;;;9.84;100.00;100791.59;5095646;28;20032;-60
2022/12/26 07:29:46;;;;;;;8.20;2.95;;;;;;;9.84;100.00;100782.81;5095805;28;20046;-60
2022/12/26 07:32:12;;;;;;;6.25;2.58;;;;;;;9.84;100.00;100782.81;5077657;28;20068;-60
2022/12/26 07:34:41;;;;;;;9.57;3.30;;;;;;;9.76;100.00;100791.50;5095514;28;20062;-60
2022/12/26 07:37:08;;;;;;;9.35;3.40;;;;;;;9.76;100.00;100802.91;5094663;28;20040;-60
2022/12/26 07:39:36;;;;;;;8.57;2.97;;;;;;;9.70;100.00;100805.34;5094638;28;20052;-60
2022/12/26 07:42:04;;;;;;;7.05;2.60;;;;;;;9.74;100.00;100815.47;5095389;28;20044;-60
2022/12/26 07:44:32;;;;;;;8.98;2.75;;;;;;;9.65;100.00;100821.66;5095443;28;20048;-60
2022/12/26 07:46:59;;;;;;;6.70;2.88;;;;;;;9.69;100.00;100816.91;5095407;28;20044;-60
2022/12/26 07:49:26;;;;;;;6.60;2.53;;;;;;;9.64;100.00;100817.34;5094439;28;20127;-60
2022/12/26 07:51:53;;;;;;;6.53;2.53;;;;;;;9.64;100.00;100819.16;5095367;28;20047;-60
2022/12/26 07:54:20;;;;;;;8.20;2.90;;;;;;;9.75;100.00;100827.75;5094185;28;20054;-60
2022/12/26 07:56:47;;;;;;;10.75;2.45;;;;;;;9.68;100.00;100817.88;5095361;28;20044;-60
2022/12/26 07:59:15;;;;;;;6.40;2.45;;;;;;;9.71;100.00;100822.88;5095488;28;20036;-60
2022/12/26 08:01:43;;;;;;;9.82;2.30;;;;;;;9.62;100.00;100819.28;5095120;28;20068;-60
2022/12/26 08:04:11;;;;;;;7.72;2.33;;;;;;;9.69;100.00;100824.84;5095002;28;20044;-60
2022/12/26 08:06:38;;;;;;;4.60;2.00;;;;;;;9.71;100.00;100815.75;5093105;28;20044;-60
2022/12/26 08:09:05;;;;;;;5.55;2.00;;;;;;;9.69;100.00;100819.56;5095140;28;20047;-60
2022/12/26 08:11:34;;;;;;;7.50;1.90;;;;;;;9.72;100.00;100836.00;5093730;28;20044;-62
2022/12/26 08:14:01;;;;;;;5.38;1.85;;;;;;;9.84;100.00;100810.16;5076939;28;20047;-60
2022/12/26 08:16:28;;;;;;;8.57;2.10;;;;;;;9.83;100.00;100802.34;5094635;28;20055;-60
2022/12/26 08:18:55;;;;;;;12.93;1.88;;;;;;;9.82;100.00;100814.75;5078096;28;20044;-60
2022/12/26 08:21:22;;;;;;;3.40;1.70;;;;;;;9.82;100.00;100820.03;5094563;28;20041;-60
2022/12/26 08:23:49;;;;;;;4.57;1.80;;;;;;;9.80;100.00;100829.94;5095166;28;20044;-60
2022/12/26 08:26:21;;;;;;;7.47;1.90;;;;;;;9.69;100.00;100827.50;5093679;28;20054;-60
2022/12/26 08:28:49;;;;;;;4.75;1.90;;;;;;;9.69;100.00;100832.78;5093924;28;20074;-60
2022/12/26 08:31:17;;;;;;;6.63;1.80;;;;;;;9.76;100.00;100841.81;5094361;28;20114;-60
2022/12/26 08:33:44;;;;;;;7.20;1.70;;;;;;;9.78;100.00;100834.56;5076832;28;20036;-60
2022/12/26 08:36:12;;;;;;;5.38;2.03;;;;;;;9.76;100.00;100831.22;5095088;28;20485;-61
2022/12/26 08:38:39;;;;;;;3.97;1.70;;;;;;;9.69;100.00;100838.09;5076518;28;20068;-60
2022/12/26 08:41:07;;;;;;;6.95;1.90;;;;;;;9.72;100.00;100846.59;5093038;28;20040;-61
2022/12/26 08:43:33;;;;;;;7.10;1.63;;;;;;;9.75;100.00;100853.41;5094565;28;20036;-59
2022/12/26 08:46:20;;;;;;;7.13;1.90;;;;;;;9.76;100.00;100863.84;5093485;28;20046;-59
2022/12/26 08:48:48;;;;;;;4.68;2.05;;;;;;;9.73;100.00;100858.88;5094141;28;20089;-59
2022/12/26 08:51:21;;;;;;;3.53;1.70;;;;;;;9.70;100.00;100867.09;5093365;28;20052;-59
2022/12/26 08:53:49;;;;;;;7.13;2.00;;;;;;;9.73;100.00;100858.88;5093285;28;20110;-59
2022/12/26 08:56:19;;;;;;;6.95;1.98;;;;;;;9.77;100.00;100856.75;5092795;28;20126;-60
2022/12/26 08:58:46;;;;;;;5.95;1.90;;;;;;;9.85;100.00;100853.38;5094382;28;20055;-59
2022/12/26 09:01:16;;;;;;;5.28;1.90;;;;;;;9.87;100.00;100856.72;5093946;28;20043;-60
2022/12/26 09:03:44;;;;;;;7.93;1.88;;;;;;;9.74;100.00;100865.00;5092935;28;20068;-60
2022/12/26 09:06:13;;;;;;;5.60;2.03;;;;;;;9.75;100.00;100877.25;5093564;28;20052;-59
2022/12/26 09:08:41;;;;;;;5.15;1.85;;;;;;;9.71;100.00;100866.09;5093654;28;20404;-59
2022/12/26 09:11:11;;;;;;;6.75;1.90;;;;;;;9.78;100.00;100869.00;5093512;28;20055;-59
2022/12/26 09:13:39;;;;;;;4.22;1.80;;;;;;;9.79;100.00;100866.22;5093792;28;20036;-60
2022/12/26 09:16:12;;;;;;;9.02;2.38;;;;;;;9.82;100.00;100878.31;5093984;28;20040;-59
2022/12/26 09:18:42;;;;;;;6.78;2.25;;;;;;;9.82;100.00;100874.84;5079900;28;20047;-63
2022/12/26 09:21:11;;;;;;;7.82;2.40;;;;;;;9.80;100.00;100875.84;5094095;28;20051;-63
2022/12/26 09:23:40;;;;;;;6.22;2.03;;;;;;;9.88;100.00;100866.34;5092121;28;20409;-63
2022/12/26 09:26:10;;;;;;;5.22;1.98;;;;;;;9.92;100.00;100871.19;5092307;28;20398;-62
2022/12/26 09:28:36;;;;;;;6.95;2.08;;;;;;;9.92;100.00;100873.84;5093316;28;20044;-62
2022/12/26 09:31:06;;;;;;;8.63;2.25;;;;;;;9.96;100.00;100882.31;5093687;28;20097;-62
2022/12/26 09:33:36;;;;;;;5.80;2.20;;;;;;;9.95;99.63;100884.16;5093310;28;20498;-63
2022/12/26 09:36:09;;;;;;;8.00;2.08;;;;;;;9.79;100.00;100903.31;5092163;28;20044;-63
2022/12/26 09:38:40;;;;;;;7.60;2.45;;;;;;;9.82;100.00;100906.66;5092089;28;20425;-62
2022/12/26 09:41:38;;;;;;;5.82;2.10;;;;;;;9.94;100.00;100908.97;5093685;28;20048;-62
2022/12/26 09:47:28;;;;;;;9.32;2.15;;;;;;;9.95;100.00;100937.16;5110904;27;20376;-62
2022/12/26 09:50:10;;;;;;;9.00;2.00;;;;;;;9.94;100.00;100934.63;5110749;28;20043;-62
2022/12/26 09:52:57;;;;;;;6.10;2.15;;;;;;;9.97;99.88;100927.22;5110901;28;20043;-62
2022/12/26 09:55:47;;;;;;;12.13;2.38;;;;;;;10.02;100.00;100937.38;5109833;28;20088;-62
2022/12/26 09:58:28;;;;;;;7.28;2.30;;;;;;;10.04;100.00;100929.28;5109085;28;20058;-62
2022/12/26 10:01:16;;;;;;;6.93;2.00;;;;;;;10.11;99.20;100939.16;5092475;28;20044;-62
2022/12/26 10:03:51;;;;;;;4.75;1.80;;;;;;;10.12;98.36;100940.00;5110224;28;20564;-62
2022/12/26 10:06:21;;;;;;;9.88;2.45;;;;;;;10.13;98.26;100928.41;5108883;28;20040;-62
2022/12/26 10:09:16;;;;;;;8.48;2.92;;;;;;;10.22;98.24;100929.34;5110354;28;20080;-62
2022/12/26 10:15:21;;;;;;;6.03;2.10;;;;;;;10.34;96.14;100918.44;5151835;27;20341;-63
2022/12/26 10:17:58;;;;;;;8.95;2.50;;;;;;;10.34;95.47;100909.66;5130501;28;20054;-63
2022/12/26 10:20:51;;;;;;;10.75;2.40;;;;;;;10.43;95.13;100914.06;5130873;28;20044;-63
2022/12/26 10:23:46;;;;;;;10.57;2.30;;;;;;;10.46;94.29;100911.13;5131651;27;20046;-64
2022/12/26 10:26:36;;;;;;;9.05;2.10;;;;;;;10.41;93.77;100909.91;5130949;27;20131;-63
2022/12/26 10:29:27;;;;;;;4.88;1.77;;;;;;;10.40;92.73;100909.03;5130301;28;20053;-64
2022/12/26 10:32:06;;;;;;;11.30;2.92;;;;;;;10.39;93.20;100910.03;5130847;27;20130;-65
2022/12/26 10:34:48;;;;;;;5.70;1.90;;;;;;;10.37;92.53;100904.88;5131124;27;20087;-64
2022/12/26 10:37:30;;;;;;;6.68;1.90;;;;;;;10.32;93.62;100903.66;5129899;28;20094;-64
2022/12/26 10:40:06;;;;;;;14.50;2.30;;;;;;;10.46;93.12;100904.97;5131538;27;20512;-63
2022/12/26 10:42:38;;;;;;;6.90;2.00;;;;;;;10.45;92.12;100906.78;5130924;27;20047;-64
2022/12/26 10:45:44;;;;;;;6.85;1.90;;;;;;;10.45;91.22;100906.78;5131196;27;20044;-65
2022/12/26 10:48:13;;;;;;;6.15;1.95;;;;;;;10.35;91.31;100916.59;5130781;27;20054;-64
2022/12/26 10:50:45;;;;;;;10.05;2.22;;;;;;;10.33;92.49;100902.66;5130923;27;20088;-64
2022/12/26 10:53:14;;;;;;;6.18;1.92;;;;;;;10.44;91.66;100913.09;5129864;28;20044;-64
2022/12/26 10:55:41;;;;;;;7.68;2.00;;;;;;;10.40;91.39;100913.53;5129858;28;20048;-63
2022/12/26 10:58:21;;;;;;;7.05;2.17;;;;;;;10.31;91.68;100912.59;5130701;27;20044;-64
2022/12/26 11:00:48;;;;;;;8.52;2.10;;;;;;;10.36;90.92;100916.47;5130516;27;20081;-64
2022/12/26 11:03:18;;;;;;;9.43;2.10;;;;;;;10.61;89.61;100914.09;5119829;27;20588;-64
2022/12/26 11:05:55;;;;;;;9.80;2.20;;;;;;;10.81;88.10;100916.63;5110014;28;20051;-65
2022/12/26 11:08:38;;;;;;;7.43;1.88;;;;;;;10.70;88.85;100915.84;5120082;28;20070;-63
2022/12/26 11:11:18;;;;;;;10.25;2.42;;;;;;;10.97;88.44;100921.22;5130836;27;20047;-60
2022/12/26 11:13:51;;;;;;;6.97;2.13;;;;;;;11.42;84.94;100918.44;5095294;28;20523;-62
2022/12/26 11:16:30;;;;;;;6.47;2.03;;;;;;;11.60;84.07;100923.69;5129762;28;20404;-62
2022/12/26 11:18:57;;;;;;;9.57;2.00;;;;;;;11.69;83.21;100916.63;5112801;28;20040;-65
2022/12/26 11:21:27;;;;;;;8.90;2.30;;;;;;;11.25;84.92;100914.00;5130601;27;20489;-60
2022/12/26 11:26:46;;;;;;;11.30;2.40;;;;;;;10.99;86.20;100917.44;5111591;27;20376;-59
2022/12/26 11:29:20;;;;;;;7.05;2.00;;;;;;;11.46;83.85;100919.81;5109857;28;20044;-59
2022/12/26 11:31:57;;;;;;;12.23;2.00;;;;;;;11.47;85.33;100923.28;5093603;28;20056;-60
2022/12/26 11:34:33;;;;;;;9.48;2.20;;;;;;;11.32;84.14;100923.03;5111047;28;20071;-61
2022/12/26 11:37:02;;;;;;;9.27;1.90;;;;;;;11.03;85.15;100928.59;5076750;28;20048;-59
2022/12/26 11:39:34;;;;;;;8.15;2.08;;;;;;;10.97;86.37;100923.88;5092987;28;20043;-60
2022/12/26 11:42:10;;;;;;;5.53;1.70;;;;;;;10.93;85.84;100915.38;5110437;28;20051;-59
2022/12/26 11:44:41;;;;;;;8.73;1.65;;;;;;;10.76;85.70;100925.00;5076410;28;20059;-64
2022/12/26 11:47:11;;;;;;;8.73;1.80;;;;;;;10.68;86.21;100927.59;5101234;28;20052;-60
2022/12/26 11:52:42;;;;;;;8.68;1.90;;;;;;;10.59;87.44;100920.50;5070755;28;20379;-59
2022/12/26 11:55:32;;;;;;;11.65;2.30;;;;;;;10.60;88.28;100930.97;5069653;28;20494;-59
2022/12/26 12:03:39;;;;;;;4.60;1.77;;;;;;;10.30;95.32;100926.81;5152389;27;20723;-63
2022/12/26 12:06:29;;;;;;;;;;;;;;;10.16;98.04;100954.63;5152692;27;20057;-60
2022/12/26 12:09:36;;;;;;;5.50;1.77;;;;;;;9.65;100.00;100924.13;5150765;27;20361;-60
2022/12/26 12:12:34;;;;;;;5.38;2.05;;;;;;;9.53;100.00;100934.03;5151098;27;20047;-59
2022/12/26 12:15:27;;;;;;;8.27;2.00;;;;;;;9.44;100.00;100932.25;5150701;27;20042;-59
2022/12/26 12:18:21;;;;;;;9.77;2.53;;;;;;;9.50;100.00;100921.94;5150749;27;20449;-59
2022/12/26 12:21:09;;;;;;;12.80;2.40;;;;;;;9.58;100.00;100914.09;5151580;27;20129;-60
2022/12/26 12:24:09;;;;;;;9.02;2.42;;;;;;;9.59;100.00;100920.25;5151265;27;20047;-59
2022/12/26 12:26:51;;;;;;;9.52;2.38;;;;;;;9.64;100.00;100918.00;5150253;27;20043;-60
2022/12/26 12:29:30;;;;;;;13.30;2.22;;;;;;;9.72;97.52;100936.66;5152200;27;20043;-59
2022/12/26 12:32:17;;;;;;;6.10;1.77;;;;;;;9.75;99.91;100939.03;5149852;27;20488;-59
2022/12/26 12:35:24;;;;;;;17.15;2.85;;;;;;;9.69;100.00;100941.41;5152132;27;20094;-59
2022/12/26 12:41:00;;;;;;;9.93;2.20;;;;;;;9.48;100.00;100938.94;5111249;27;20725;-60
2022/12/26 12:46:38;;;;;;;8.55;2.25;;;;;;;9.41;100.00;100936.03;5111206;27;20381;-59
2022/12/26 12:49:33;;;;;;;17.30;3.20;;;;;;;9.39;100.00;100930.88;5109694;28;20052;-60
2022/12/26 12:52:29;;;;;;;6.35;1.88;;;;;;;9.26;100.00;100945.38;5109697;28;20039;-60
2022/12/26 12:55:17;;;;;;;5.85;1.90;;;;;;;9.22;100.00;100929.78;5110820;28;20065;-60
2022/12/26 12:57:59;;;;;;;4.85;1.90;;;;;;;9.15;100.00;100935.75;5087724;28;20397;-60
2022/12/26 13:00:34;;;;;;;7.22;1.90;;;;;;;9.13;100.00;100929.78;5090306;28;20044;-60
2022/12/26 13:03:27;;;;;;;6.45;2.30;;;;;;;9.08;100.00;100935.50;5088956;28;20040;-59
2022/12/26 13:06:15;;;;;;;6.78;1.90;;;;;;;9.14;100.00;100945.50;5088772;28;20047;-59
2022/12/26 13:08:51;;;;;;;7.25;1.60;;;;;;;9.07;100.00;100946.22;5076577;28;20648;-59
2022/12/26 13:11:28;;;;;;;4.60;1.70;;;;;;;9.16;100.00;100954.16;5088949;28;20044;-59
2022/12/26 13:14:21;;;;;;;5.00;1.73;;;;;;;9.09;100.00;100960.16;5080506;28;20052;-61
2022/12/26 13:16:55;;;;;;;10.30;2.08;;;;;;;9.16;100.00;100977.16;5105758;28;20044;-59
2022/12/26 13:19:27;;;;;;;8.88;1.98;;;;;;;9.14;99.47;100971.97;5090246;28;20147;-62
2022/12/26 13:22:01;;;;;;;7.57;2.10;;;;;;;9.10;99.59;100975.06;5072521;28;20052;-59
2022/12/26 13:24:37;;;;;;;4.70;1.95;;;;;;;9.05;98.68;100972.81;5089219;28;20387;-59
2022/12/26 13:27:26;;;;;;;6.93;2.38;;;;;;;9.05;100.00;100975.47;5090052;28;20055;-60
2022/12/26 13:29:53;;;;;;;7.78;2.10;;;;;;;8.91;99.99;100974.03;5098854;28;20043;-60
2022/12/26 13:34:59;;;;;;;9.68;2.22;;;;;;;8.84;96.80;100984.38;5152108;27;20381;-60
2022/12/26 13:40:18;;;;;;;14.10;2.20;;;;;;;8.72;92.74;100988.09;5111078;27;1260411;-62
2022/12/26 13:48:23;;;;;;;10.18;2.05;;;;;;;8.69;93.65;100988.34;5151680;27;20389;-63
2022/12/26 13:50:53;;;;;;;10.00;2.22;;;;;;;8.71;94.64;100993.50;5103558;28;20059;-63
2022/12/26 13:53:29;;;;;;;11.10;1.85;;;;;;;8.70;93.83;100990.03;5104482;28;20050;-64
2022/12/26 13:56:01;;;;;;;9.85;2.30;;;;;;;8.62;92.96;100989.88;5100636;28;20488;-63
2022/12/26 14:01:30;;;;;;;8.48;1.90;;;;;;;8.39;89.50;101003.28;5152218;27;20381;-62
2022/12/26 14:04:37;;;;;;;8.00;2.10;;;;;;;8.63;92.67;101012.72;5152015;27;20495;-62
2022/12/26 14:10:12;;;;;;;7.75;1.77;;;;;;;8.62;88.83;101018.94;5090943;27;20110;-62
2022/12/26 14:16:00;;;;;;;7.47;2.15;;;;;;;8.72;90.95;101022.47;5111102;27;20379;-59
2022/12/26 14:18:55;;;;;;;8.48;2.05;;;;;;;8.63;88.92;101033.88;5077176;28;20482;-59
2022/12/26 14:21:35;;;;;;;9.52;2.20;;;;;;;8.63;88.89;101036.50;5095934;28;20056;-59
2022/12/26 14:27:16;;;;;;;10.75;2.42;;;;;;;8.68;87.05;101052.81;5110971;27;20869;-60
2022/12/26 14:29:54;;;;;;;13.07;2.47;;;;;;;8.47;89.16;101062.63;5112937;28;20048;-60
2022/12/26 14:33:01;;;;;;;12.38;2.10;;;;;;;8.36;87.07;101063.50;5061013;28;20040;-60
2022/12/26 14:36:08;;;;;;;12.07;2.25;;;;;;;8.47;87.58;101073.19;5115215;28;20042;-60
2022/12/26 14:39:05;;;;;;;10.30;2.55;;;;;;;8.52;83.90;101081.56;5109746;28;20047;-61
2022/12/26 14:45:00;;;;;;;12.50;2.20;;;;;;;8.26;87.53;101084.59;5110730;28;20127;-61
2022/12/26 14:47:47;;;;;;;8.05;2.00;;;;;;;8.27;83.62;101089.72;5109563;28;20210;-61
2022/12/26 14:50:36;;;;;;;12.82;2.60;;;;;;;8.24;80.06;101084.72;5110604;28;20070;-59
2022/12/26 14:59:23;;;;;;;10.23;2.15;;;;;;;8.12;84.36;101103.44;5110979;27;20358;-60